createdAt,value
2018-06-18T00:00:06.236Z,3.20
2018-06-18T00:02:35.169Z,3.10
2018-06-18T00:05:03.372Z,3.30
2018-06-18T00:07:34.508Z,4.20
2018-06-18T00:10:07.192Z,3.90
2018-06-18T00:12:36.003Z,3.70
2018-06-18T00:15:04.235Z,3.53
2018-06-18T00:17:35.341Z,3.80
2018-06-18T00:20:03.875Z,3.70
2018-06-18T00:22:32.137Z,3.80
2018-06-18T00:25:04.472Z,4.00
2018-06-18T00:27:32.653Z,3.43
2018-06-18T00:30:01.330Z,3.90
2018-06-18T00:32:29.559Z,3.87
2018-06-18T00:34:57.759Z,3.87
2018-06-18T00:37:26.330Z,3.47
2018-06-18T00:40:02.015Z,3.37
2018-06-18T00:42:30.272Z,4.60
2018-06-18T00:44:58.505Z,3.80
2018-06-18T00:47:27.561Z,3.40
2018-06-18T00:49:55.823Z,3.63
2018-06-18T00:52:24.055Z,3.97
2018-06-18T00:54:52.246Z,3.50
2018-06-18T00:57:20.488Z,5.00
2018-06-18T00:59:48.659Z,3.37
2018-06-18T01:02:16.832Z,4.50
2018-06-18T01:07:19.820Z,3.77
2018-06-18T01:09:51.768Z,4.30
2018-06-18T01:12:19.926Z,3.83
2018-06-18T01:14:47.894Z,3.60
2018-06-18T01:17:16.275Z,3.87
2018-06-18T01:19:44.450Z,3.60
2018-06-18T01:22:13.305Z,4.50
2018-06-18T01:25:04.939Z,3.70
2018-06-18T01:27:33.150Z,3.60
2018-06-18T01:30:01.400Z,3.10
2018-06-18T01:32:29.617Z,5.23
2018-06-18T01:34:57.808Z,3.70
2018-06-18T01:37:26.035Z,3.10
2018-06-18T01:39:54.568Z,3.47
2018-06-18T01:42:23.558Z,3.07
2018-06-18T01:44:51.759Z,3.40
2018-06-18T01:47:21.187Z,2.92
2018-06-18T01:49:49.818Z,3.50
2018-06-18T01:52:17.995Z,3.50
2018-06-18T01:54:46.660Z,3.27
2018-06-18T01:57:19.217Z,2.90
2018-06-18T01:59:47.455Z,3.30
2018-06-18T02:02:22.300Z,3.15
2018-06-18T02:04:50.491Z,4.12
2018-06-18T02:07:18.752Z,3.00
2018-06-18T02:09:46.939Z,4.15
2018-06-18T02:12:15.163Z,3.40
2018-06-18T02:14:43.399Z,3.50
2018-06-18T02:17:11.676Z,3.60
2018-06-18T02:19:39.925Z,2.80
2018-06-18T02:22:08.116Z,3.70
2018-06-18T02:24:36.323Z,3.65
2018-06-18T02:27:13.450Z,3.53
2018-06-18T02:29:47.899Z,3.67
2018-06-18T02:32:21.660Z,3.72
2018-06-18T02:34:55.235Z,3.37
2018-06-18T02:37:28.915Z,4.00
2018-06-18T02:40:05.684Z,3.40
2018-06-18T02:42:33.909Z,3.60
2018-06-18T02:45:01.923Z,3.92
2018-06-18T02:47:30.133Z,3.83
2018-06-18T02:49:58.292Z,3.53
2018-06-18T02:52:27.164Z,3.35
2018-06-18T02:54:55.599Z,3.50
2018-06-18T02:57:23.797Z,3.47
2018-06-18T02:59:52.072Z,4.20
2018-06-18T03:02:20.268Z,3.90
2018-06-18T03:04:48.524Z,3.30
2018-06-18T03:07:23.243Z,3.60
2018-06-18T03:09:51.631Z,3.50
2018-06-18T03:12:21.217Z,3.53
2018-06-18T03:14:49.446Z,4.07
2018-06-18T03:17:17.661Z,3.73
2018-06-18T03:19:53.041Z,5.92
2018-06-18T03:22:26.943Z,3.53
2018-06-18T03:25:00.732Z,3.83
2018-06-18T03:27:37.634Z,3.80
2018-06-18T03:30:07.548Z,4.28
2018-06-18T03:32:35.817Z,3.80
2018-06-18T03:35:04.285Z,3.93
2018-06-18T03:37:32.494Z,3.50
2018-06-18T03:40:01.492Z,4.05
2018-06-18T03:42:29.733Z,4.60
2018-06-18T03:45:30.732Z,3.17
2018-06-18T03:48:04.421Z,4.37
2018-06-18T03:50:32.626Z,4.30
2018-06-18T03:53:00.827Z,4.00
2018-06-18T03:55:48.128Z,3.77
2018-06-18T03:58:16.434Z,3.98
2018-06-18T04:01:33.096Z,3.67
2018-06-18T04:04:08.620Z,5.27
2018-06-18T04:06:42.304Z,4.10
2018-06-18T04:09:15.873Z,4.42
2018-06-18T04:11:52.568Z,3.53
2018-06-18T04:14:20.822Z,4.17
2018-06-18T04:16:49.053Z,3.80
2018-06-18T04:19:17.730Z,3.68
2018-06-18T04:21:45.991Z,3.40
2018-06-18T04:24:14.207Z,4.10
2018-06-18T04:26:42.655Z,3.70
2018-06-18T04:29:10.990Z,3.63
2018-06-18T04:31:39.488Z,3.62
2018-06-18T04:34:25.229Z,4.45
2018-06-18T04:36:53.447Z,3.80
2018-06-18T04:39:21.701Z,4.12
2018-06-18T04:41:55.382Z,3.90
2018-06-18T04:44:28.902Z,3.37
2018-06-18T04:47:02.443Z,3.70
2018-06-18T04:49:35.922Z,3.50
2018-06-18T04:52:04.162Z,2.70
2018-06-18T04:54:32.773Z,3.08
2018-06-18T04:57:01.703Z,3.20
2018-06-18T04:59:30.418Z,4.93
2018-06-18T05:02:01.228Z,3.52
2018-06-18T05:04:29.395Z,3.33
2018-06-18T05:06:58.913Z,3.30
2018-06-18T05:09:39.652Z,3.10
2018-06-18T05:12:08.163Z,2.87
2018-06-18T05:14:36.442Z,3.53
2018-06-18T05:17:05.328Z,3.22
2018-06-18T05:19:33.615Z,3.55
2018-06-18T05:22:03.372Z,3.80
2018-06-18T05:24:31.676Z,3.30
2018-06-18T05:27:00.318Z,3.73
2018-06-18T05:29:28.519Z,3.70
2018-06-18T05:31:56.796Z,2.80
2018-06-18T05:34:28.467Z,3.57
2018-06-18T05:37:00.839Z,2.58
2018-06-18T05:39:29.106Z,2.60
2018-06-18T05:41:57.287Z,2.90
2018-06-18T05:44:25.480Z,3.67
2018-06-18T05:46:54.174Z,3.77
2018-06-18T05:49:22.428Z,3.80
2018-06-18T05:51:50.624Z,3.20
2018-06-18T05:54:18.879Z,3.10
2018-06-18T05:56:47.047Z,3.60
2018-06-18T05:59:15.241Z,3.60
2018-06-18T06:01:53.929Z,2.90
2018-06-18T06:04:22.120Z,2.80
2018-06-18T06:06:51.243Z,3.08
2018-06-18T06:09:19.467Z,3.70
2018-06-18T06:11:47.784Z,2.60
2018-06-18T06:14:16.315Z,3.00
2018-06-18T06:16:48.715Z,2.95
2018-06-18T06:19:16.910Z,2.62
2018-06-18T06:21:45.138Z,2.17
2018-06-18T06:24:13.382Z,3.45
2018-06-18T06:26:41.537Z,3.90
2018-06-18T06:29:16.444Z,2.57
2018-06-18T06:31:44.744Z,2.92
2018-06-18T06:34:13.834Z,2.43
2018-06-18T06:36:42.472Z,2.95
2018-06-18T06:39:11.340Z,3.60
2018-06-18T06:41:41.536Z,2.52
2018-06-18T06:44:13.270Z,2.70
2018-06-18T06:46:45.631Z,2.47
2018-06-18T06:49:13.836Z,2.22
2018-06-18T06:51:42.025Z,2.50
2018-06-18T06:54:10.421Z,3.70
2018-06-18T06:56:39.028Z,2.50
2018-06-18T06:59:07.381Z,2.00
2018-06-18T07:01:38.876Z,2.35
2018-06-18T07:04:07.999Z,3.10
2018-06-18T07:06:36.266Z,2.03
2018-06-18T07:09:07.832Z,2.25
2018-06-18T07:11:36.619Z,2.60
2018-06-18T07:14:04.592Z,2.57
2018-06-18T07:16:33.125Z,2.40
2018-06-18T07:19:01.446Z,2.17
2018-06-18T07:21:29.468Z,1.83
2018-06-18T07:23:57.692Z,2.10
2018-06-18T07:26:25.988Z,2.95
2018-06-18T07:28:54.257Z,1.57
2018-06-18T07:31:29.743Z,2.00
2018-06-18T07:33:58.884Z,2.43
2018-06-18T07:36:27.095Z,1.72
2018-06-18T07:38:55.299Z,2.20
2018-06-18T07:41:24.211Z,2.20
2018-06-18T07:43:52.549Z,2.67
2018-06-18T07:46:20.740Z,1.50
2018-06-18T07:48:49.276Z,2.12
2018-06-18T07:51:17.490Z,2.33
2018-06-18T07:53:45.719Z,1.92
2018-06-18T07:56:13.947Z,1.92
2018-06-18T07:58:42.164Z,1.98
2018-06-18T08:01:14.619Z,2.33
2018-06-18T08:03:42.906Z,4.95
2018-06-18T08:06:11.141Z,2.07
2018-06-18T08:08:39.388Z,2.40
2018-06-18T08:11:07.896Z,3.03
2018-06-18T08:13:36.121Z,2.40
2018-06-18T08:16:08.583Z,2.05
2018-06-18T08:18:37.003Z,2.00
2018-06-18T08:21:05.268Z,2.42
2018-06-18T08:23:34.171Z,2.37
2018-06-18T08:26:02.382Z,3.20
2018-06-18T08:28:30.767Z,2.90
2018-06-18T08:30:58.938Z,2.60
2018-06-18T08:33:27.148Z,2.10
2018-06-18T08:35:55.377Z,3.07
2018-06-18T08:38:23.778Z,3.05
2018-06-18T08:40:51.998Z,2.20
2018-06-18T08:43:20.256Z,2.85
2018-06-18T08:45:48.580Z,2.70
2018-06-18T08:48:21.999Z,2.47
2018-06-18T08:50:55.676Z,2.50
2018-06-18T08:53:29.148Z,2.63
2018-06-18T08:56:02.700Z,2.73
2018-06-18T08:58:36.839Z,2.50
2018-06-18T09:01:12.542Z,2.67
2018-06-18T09:03:46.175Z,3.23
2018-06-18T09:06:14.385Z,2.67
2018-06-18T09:08:47.929Z,3.03
2018-06-18T09:11:16.402Z,2.50
2018-06-18T09:13:45.192Z,2.90
2018-06-18T09:16:13.417Z,2.60
2018-06-18T09:18:41.439Z,2.30
2018-06-18T09:21:10.204Z,2.70
2018-06-18T09:23:38.492Z,2.57
2018-06-18T09:26:06.669Z,2.53
2018-06-18T09:28:34.872Z,2.90
2018-06-18T09:31:03.119Z,2.60
2018-06-18T09:33:31.352Z,2.20
2018-06-18T09:35:59.588Z,2.55
2018-06-18T09:38:27.803Z,2.30
2018-06-18T09:40:56.059Z,2.43
2018-06-18T09:43:24.357Z,2.87
2018-06-18T09:45:53.293Z,2.52
2018-06-18T09:48:25.768Z,2.33
2018-06-18T09:50:59.632Z,2.98
2018-06-18T09:53:33.328Z,2.90
2018-06-18T09:56:06.890Z,2.58
2018-06-18T09:58:40.580Z,2.55
2018-06-18T10:01:16.894Z,2.07
2018-06-18T10:03:45.225Z,2.47
2018-06-18T10:06:14.257Z,2.60
2018-06-18T10:08:42.926Z,2.90
2018-06-18T10:11:13.889Z,2.95
2018-06-18T10:13:43.084Z,2.97
2018-06-18T10:16:15.958Z,2.30
2018-06-18T10:18:44.882Z,2.35
2018-06-18T10:21:13.200Z,2.27
2018-06-18T10:23:42.900Z,3.10
2018-06-18T10:26:11.500Z,2.33
2018-06-18T10:28:39.895Z,2.07
2018-06-18T10:31:08.199Z,2.98
2018-06-18T10:33:41.792Z,2.80
2018-06-18T10:36:15.661Z,2.20
2018-06-18T10:38:49.309Z,2.30
2018-06-18T10:41:22.995Z,3.53
2018-06-18T10:43:51.188Z,3.40
2018-06-18T10:46:19.431Z,2.70
2018-06-18T10:48:47.761Z,3.40
2018-06-18T10:51:16.061Z,2.50
2018-06-18T10:53:44.270Z,2.60
2018-06-18T10:56:12.507Z,2.70
2018-06-18T10:58:41.240Z,2.53
2018-06-18T11:01:11.566Z,2.33
2018-06-18T11:03:47.079Z,2.40
2018-06-18T11:06:20.585Z,2.40
2018-06-18T11:08:49.606Z,2.15
2018-06-18T11:11:17.833Z,2.47
2018-06-18T11:13:46.111Z,2.47
2018-06-18T11:16:14.462Z,2.73
2018-06-18T11:18:48.231Z,2.22
2018-06-18T11:21:22.054Z,2.10
2018-06-18T11:23:56.316Z,1.85
2018-06-18T11:26:30.017Z,2.67
2018-06-18T11:28:58.176Z,1.90
2018-06-18T11:46:26.943Z,2.05
2018-06-18T11:48:55.210Z,2.47
2018-06-18T11:51:35.239Z,2.10
2018-06-18T11:54:03.457Z,2.97
2018-06-18T11:56:32.324Z,2.40
2018-06-18T11:59:05.953Z,2.40
2018-06-18T12:01:40.253Z,2.57
2018-06-18T12:04:13.892Z,3.12
2018-06-18T12:06:51.744Z,2.45
2018-06-18T12:09:27.608Z,2.23
2018-06-18T12:11:56.388Z,1.83
2018-06-18T12:14:25.286Z,2.07
2018-06-18T12:16:53.589Z,2.43
2018-06-18T12:19:21.876Z,2.00
2018-06-18T12:21:57.517Z,2.35
2018-06-18T12:25:26.380Z,2.10
2018-06-18T12:27:54.640Z,2.17
2018-06-18T12:30:22.838Z,2.23
2018-06-18T12:32:52.024Z,1.80
2018-06-18T12:35:20.251Z,1.50
2018-06-18T12:37:53.104Z,1.90
2018-06-18T12:40:21.950Z,1.85
2018-06-18T12:42:49.919Z,1.67
2018-06-18T12:45:25.088Z,1.67
2018-06-18T12:47:58.604Z,2.43
2018-06-18T12:50:36.080Z,1.90
2018-06-18T12:53:10.488Z,1.70
2018-06-18T12:55:44.121Z,2.10
2018-06-18T12:58:12.342Z,1.85
2018-06-18T13:00:40.670Z,1.97
2018-06-18T13:03:11.668Z,2.17
2018-06-18T13:05:43.448Z,1.60
2018-06-18T13:08:12.161Z,2.30
2018-06-18T13:10:40.380Z,2.30
2018-06-18T13:13:08.793Z,1.83
2018-06-18T13:15:37.072Z,2.50
2018-06-18T13:18:05.344Z,1.90
2018-06-18T13:20:36.450Z,2.33
2018-06-18T13:23:09.112Z,1.77
2018-06-18T13:25:38.071Z,1.40
2018-06-18T13:28:11.707Z,1.65
2018-06-18T13:30:39.916Z,2.00
2018-06-18T13:33:08.575Z,1.77
2018-06-18T13:35:36.776Z,2.63
2018-06-18T13:38:10.443Z,1.93
2018-06-18T13:40:45.848Z,1.67
2018-06-18T13:43:19.936Z,2.10
2018-06-18T13:45:53.515Z,1.45
2018-06-18T13:48:27.775Z,1.87
2018-06-18T13:50:55.943Z,2.03
2018-06-18T13:53:24.962Z,2.37
2018-06-18T13:55:54.140Z,1.77
2018-06-18T13:58:22.919Z,2.60
2018-06-18T14:00:51.103Z,1.87
2018-06-18T14:03:19.356Z,2.02
2018-06-18T14:05:48.471Z,2.10
2018-06-18T14:08:17.238Z,1.63
2018-06-18T14:10:46.016Z,1.30
2018-06-18T14:13:15.125Z,1.60
2018-06-18T14:15:44.187Z,2.00
2018-06-18T14:18:13.071Z,2.25
2018-06-18T14:20:41.316Z,2.10
2018-06-18T14:23:09.946Z,1.70
2018-06-18T14:25:38.211Z,1.70
2018-06-18T14:28:06.404Z,1.70
2018-06-18T14:30:41.256Z,1.57
2018-06-18T14:33:14.843Z,1.90
2018-06-18T14:35:48.884Z,3.13
2018-06-18T14:38:29.915Z,1.90
2018-06-18T14:40:58.850Z,1.37
2018-06-18T14:43:27.866Z,1.72
2018-06-18T14:45:57.109Z,1.90
2018-06-18T14:48:25.397Z,1.50
2018-06-18T14:50:53.565Z,1.53
2018-06-18T14:53:25.680Z,1.40
2018-06-18T14:56:00.800Z,2.10
2018-06-18T14:58:29.063Z,1.73
2018-06-18T15:00:58.137Z,1.50
2018-06-18T15:03:26.341Z,1.93
2018-06-18T15:05:56.132Z,1.87
2018-06-18T15:08:24.973Z,1.97
2018-06-18T15:10:54.215Z,2.90
2018-06-18T15:13:23.397Z,1.37
2018-06-18T15:15:57.032Z,2.15
2018-06-18T15:18:25.276Z,1.83
2018-06-18T15:20:56.685Z,1.57
2018-06-18T15:23:26.681Z,1.72
2018-06-18T15:25:55.648Z,1.45
2018-06-18T15:28:23.855Z,1.63
2018-06-18T15:30:52.987Z,1.90
2018-06-18T15:33:21.934Z,1.80
2018-06-18T15:35:50.943Z,1.45
2018-06-18T15:38:19.405Z,1.90
2018-06-18T15:40:47.523Z,1.72
2018-06-18T15:43:16.535Z,2.87
2018-06-18T15:45:45.361Z,1.42
2018-06-18T15:48:13.563Z,1.27
2018-06-18T15:50:41.760Z,1.40
2018-06-18T15:53:13.901Z,1.87
2018-06-18T15:55:42.578Z,1.40
2018-06-18T15:58:10.847Z,1.80
2018-06-18T16:00:39.075Z,1.50
2018-06-18T16:03:07.644Z,2.33
2018-06-18T16:05:35.920Z,1.80
2018-06-18T16:08:04.221Z,1.50
2018-06-18T16:10:32.732Z,1.60
2018-06-18T16:13:00.875Z,1.55
2018-06-18T16:15:30.563Z,1.80
2018-06-18T16:17:58.843Z,2.10
2018-06-18T16:20:27.056Z,1.30
2018-06-18T16:22:56.268Z,1.40
2018-06-18T16:25:25.208Z,1.62
2018-06-18T16:27:53.748Z,1.55
2018-06-18T16:30:22.020Z,1.30
2018-06-18T16:32:50.256Z,1.80
2018-06-18T16:35:18.922Z,1.30
2018-06-18T16:37:47.139Z,1.63
2018-06-18T16:40:15.396Z,1.47
2018-06-18T16:42:44.275Z,1.37
2018-06-18T16:45:12.612Z,2.00
2018-06-18T16:47:40.820Z,2.10
2018-06-18T16:50:09.792Z,1.90
2018-06-18T16:52:38.008Z,1.70
2018-06-18T16:55:06.507Z,2.00
2018-06-18T16:57:34.760Z,2.00
2018-06-18T17:00:02.959Z,1.47
2018-06-18T17:02:31.192Z,2.30
2018-06-18T17:04:59.610Z,2.33
2018-06-18T17:07:28.703Z,1.80
2018-06-18T17:09:57.333Z,1.90
2018-06-18T17:12:25.528Z,1.80
2018-06-18T17:14:53.927Z,1.75
2018-06-18T17:17:22.513Z,1.60
2018-06-18T17:19:50.734Z,1.70
2018-06-18T17:22:18.942Z,1.83
2018-06-18T17:24:50.723Z,2.10
2018-06-18T17:27:18.951Z,1.90
2018-06-18T17:29:47.190Z,1.80
2018-06-18T17:32:15.380Z,2.03
2018-06-18T17:34:43.803Z,2.13
2018-06-18T17:37:12.016Z,2.10
2018-06-18T17:39:41.048Z,2.27
2018-06-18T17:42:13.036Z,2.50
2018-06-18T17:44:41.866Z,2.00
2018-06-18T17:47:10.053Z,2.20
2018-06-18T17:49:39.259Z,1.87
2018-06-18T17:52:08.752Z,2.23
2018-06-18T17:54:37.028Z,1.87
2018-06-18T17:57:05.661Z,3.20
2018-06-18T17:59:34.964Z,2.30
2018-06-18T18:02:11.048Z,2.23
2018-06-18T18:04:39.485Z,2.40
2018-06-18T18:07:08.191Z,1.90
2018-06-18T18:09:36.635Z,2.20
2018-06-18T18:12:09.414Z,2.10
2018-06-18T18:14:38.300Z,2.25
2018-06-18T18:17:06.572Z,2.03
2018-06-18T18:19:36.548Z,1.95
2018-06-18T18:22:05.791Z,2.10
2018-06-18T18:24:34.168Z,2.22
2018-06-18T18:27:06.747Z,2.20
2018-06-18T18:29:35.221Z,2.30
2018-06-18T18:32:03.711Z,2.80
2018-06-18T18:34:39.122Z,2.37
2018-06-18T18:37:07.981Z,3.20
2018-06-18T18:39:36.097Z,2.37
2018-06-18T18:42:08.738Z,2.87
2018-06-18T18:44:36.992Z,2.50
2018-06-18T18:47:07.604Z,3.00
2018-06-18T18:49:35.764Z,3.20
2018-06-18T18:52:04.052Z,2.77
2018-06-18T18:54:42.364Z,2.87
2018-06-18T18:57:25.432Z,2.83
2018-06-18T18:59:53.452Z,2.83
2018-06-18T19:02:21.788Z,2.80
2018-06-18T19:04:58.092Z,2.50
2018-06-18T19:07:30.275Z,3.25
2018-06-18T19:10:14.403Z,3.43
2018-06-18T19:12:42.704Z,3.00
2018-06-18T19:15:11.579Z,2.70
2018-06-18T19:17:42.456Z,3.80
2018-06-18T19:20:21.639Z,4.13
2018-06-18T19:22:51.296Z,3.50
2018-06-18T19:25:21.603Z,4.23
2018-06-18T19:27:50.860Z,3.12
2018-06-18T19:30:19.141Z,5.20
2018-06-18T19:32:47.736Z,3.70
2018-06-18T19:35:18.885Z,3.95
2018-06-18T19:37:47.123Z,4.00
2018-06-18T19:40:15.607Z,4.37
2018-06-18T19:42:47.801Z,4.07
2018-06-18T19:45:22.356Z,3.85
2018-06-18T19:47:56.365Z,3.80
2018-06-18T19:50:25.176Z,4.08
2018-06-18T19:52:55.163Z,4.77
2018-06-18T19:55:26.040Z,4.83
2018-06-18T19:57:57.127Z,5.10
2018-06-18T20:00:29.452Z,3.83
2018-06-18T20:02:57.886Z,4.07
2018-06-18T20:05:26.240Z,3.77
2018-06-18T20:07:59.653Z,4.22
2018-06-18T20:10:30.248Z,3.80
2018-06-18T20:12:58.647Z,3.50
2018-06-18T20:15:27.092Z,3.97
2018-06-18T20:17:55.302Z,3.93
2018-06-18T20:20:23.543Z,3.42
2018-06-18T20:22:51.868Z,4.57
2018-06-18T20:25:27.909Z,5.72
2018-06-18T20:27:59.425Z,4.67
2018-06-18T20:30:27.621Z,4.00
2018-06-18T20:32:55.844Z,3.80
2018-06-18T20:35:29.589Z,4.10
2018-06-18T20:37:57.828Z,4.23
2018-06-18T20:40:26.525Z,4.10
2018-06-18T20:42:55.496Z,4.60
2018-06-18T20:45:23.808Z,3.80
2018-06-18T20:47:52.025Z,4.30
2018-06-18T20:50:20.366Z,4.22
2018-06-18T20:52:48.565Z,4.62
2018-06-18T20:55:16.867Z,3.98
2018-06-18T20:57:45.041Z,4.60
2018-06-18T21:00:13.066Z,4.20
2018-06-18T21:02:41.346Z,5.30
2018-06-18T21:05:09.532Z,4.97
2018-06-18T21:07:38.848Z,5.27
2018-06-18T21:10:08.952Z,5.00
2018-06-18T21:12:39.562Z,4.83
2018-06-18T21:15:09.836Z,4.85
2018-06-18T21:17:38.033Z,5.13
2018-06-18T21:20:06.264Z,5.03
2018-06-18T21:22:35.225Z,4.16
2018-06-18T21:25:03.565Z,4.90
2018-06-18T21:27:31.847Z,4.70
2018-06-18T21:30:00.199Z,4.62
2018-06-18T21:32:28.617Z,5.50
2018-06-18T21:34:56.835Z,4.80
2018-06-18T21:37:26.017Z,5.17
2018-06-18T21:39:55.488Z,4.20
2018-06-18T21:42:27.409Z,4.13
2018-06-18T21:45:01.295Z,4.33
2018-06-18T21:47:29.734Z,5.45
2018-06-18T21:49:58.203Z,6.30
2018-06-18T21:52:26.533Z,5.50
2018-06-18T21:54:54.753Z,5.33
2018-06-18T21:57:23.024Z,5.37
2018-06-18T21:59:51.210Z,5.13
2018-06-18T22:02:20.512Z,5.23
2018-06-18T22:04:48.700Z,4.90
2018-06-18T22:07:17.229Z,4.60
2018-06-18T22:09:45.829Z,5.22
2018-06-18T22:12:14.088Z,5.15
2018-06-18T22:14:42.265Z,4.65
2018-06-18T22:17:10.481Z,5.60
2018-06-18T22:19:39.236Z,4.63
2018-06-18T22:22:07.501Z,5.13
2018-06-18T22:24:35.714Z,4.50
2018-06-18T22:27:03.927Z,4.30
2018-06-18T22:29:31.923Z,6.77
2018-06-18T22:32:00.122Z,5.60
2018-06-18T22:34:28.370Z,5.53
2018-06-18T22:36:56.592Z,5.03
2018-06-18T22:39:24.800Z,4.53
2018-06-18T22:41:53.745Z,5.23
2018-06-18T22:44:22.839Z,5.28
2018-06-18T22:46:51.059Z,5.13
2018-06-18T22:49:19.564Z,5.97
2018-06-18T22:51:49.323Z,5.28
2018-06-18T22:54:17.527Z,4.87
2018-06-18T22:56:46.295Z,4.93
2018-06-18T22:59:14.539Z,5.90
2018-06-18T23:01:42.716Z,4.50
2018-06-18T23:04:10.895Z,4.97
2018-06-18T23:06:39.116Z,5.50
2018-06-18T23:09:09.513Z,5.27
2018-06-18T23:11:37.720Z,4.60
2018-06-18T23:14:08.576Z,4.43
2018-06-18T23:16:38.180Z,5.90
2018-06-18T23:19:09.856Z,5.70
2018-06-18T23:21:38.066Z,5.03
2018-06-18T23:24:06.236Z,4.60
2018-06-18T23:26:34.959Z,5.25
2018-06-18T23:29:08.160Z,4.90
2018-06-18T23:31:40.116Z,6.05
2018-06-18T23:34:11.695Z,6.17
2018-06-18T23:36:40.304Z,4.42
2018-06-18T23:39:09.990Z,5.20
2018-06-18T23:41:41.194Z,5.60
2018-06-18T23:44:10.373Z,4.87
2018-06-18T23:46:42.360Z,4.22
2018-06-18T23:49:13.811Z,5.50
2018-06-18T23:51:43.027Z,4.67
2018-06-18T23:54:11.221Z,5.17
2018-06-18T23:56:39.413Z,4.30
2018-06-18T23:59:08.304Z,5.55
